Potosi, Wisconsin
Current Conditions -  °F | °C
As of 4:55 PM on Thursday 27 Nov 2014 (Local Time) from KPVB Reporting Station
Clear Clear  
Wind Chill: 14°   Ceiling: Unl
Heat Index: 14°   Visibility: 10mi
Dew Point:   Wind: 0mph
Humidity: 54%   Direction: NA
Pressure: 30.4"   Gusts: NA
Location:  42.69°N, 90.71°W
Report Text: KPVB 272255Z AUTO 00000KT 10SM CLR M10/M18 A3040 RMK AO1 T11021180
Loading
Personal Weather Stations






























Interactive Weather Map New forecast layout! Learn more

10-Day Weather Forecast

Advertisements
Track Severe Weather on mobile